Nearby METAR Reports

 

ENRY - Rygge (nor-Afb), Norway
Distance from station: 0 24km
Updated: 19/10/2018 10:50
Clear
Clear
 Wind from varies
Wind: varies 2 km/h
Temperature: 4°C
Dew Point: 3°C
Humidity: 93%
Barometer: 1024 hPa
Summary: Clear
Visibility: greater than 10 km
2018/10/19 08:50 ENRY 190850Z VRB01KT CAVOK 04/03 Q1024 NOSIG
ENTO - Torp (civ/Nor-Af, Norway
Distance from station: W 29km
Updated: 19/10/2018 11:20
Clear
Clear
 Wind from varies
Wind: varies 4 km/h
Temperature: 7°C
Dew Point: 2°C
Humidity: 71%
Barometer: 1023 hPa
Summary: Clear
Visibility: greater than 10 km
2018/10/19 09:20 ENTO 190920Z VRB02KT CAVOK 07/02 Q1023
 
ENSN - Skien/Geiterygge, Norway
Distance from station: W 68km
Updated: 09/11/2015 09:50
NOT Current
Clear
Clear
 Wind from SSW
Wind: SSW 19 km/h, Gust: 41 km/h
Temperature: 7°C
Wind Chill: 4°C
Dew Point: 3°C
Humidity: 76%
Barometer: 1000 hPa
Summary: Clear
Visibility: greater than 10 km
2015/11/09 08:50 ENSN 090850Z 20010G22KT 150V240 CAVOK 07/03 Q1000